sensor_id;sensor_type;location;lat;lon;timestamp;pressure;altitude;pressure_sealevel;temperature;humidity
22649;BME280;11491;41.942;24.220;2023-03-13T00:00:22;89893.28;;;1.56;68.89
22649;BME280;11491;41.942;24.220;2023-03-13T00:02:49;89890.19;;;1.67;69.38
22649;BME280;11491;41.942;24.220;2023-03-13T00:05:17;89889.25;;;1.77;69.63
22649;BME280;11491;41.942;24.220;2023-03-13T00:07:44;89889.50;;;1.62;69.30
22649;BME280;11491;41.942;24.220;2023-03-13T00:10:11;89889.34;;;1.72;69.13
22649;BME280;11491;41.942;24.220;2023-03-13T00:12:37;89893.56;;;1.87;68.60
22649;BME280;11491;41.942;24.220;2023-03-13T00:15:05;89889.84;;;1.74;69.57
22649;BME280;11491;41.942;24.220;2023-03-13T00:17:32;89892.53;;;1.69;69.73
22649;BME280;11491;41.942;24.220;2023-03-13T00:19:58;89897.25;;;1.72;69.94
22649;BME280;11491;41.942;24.220;2023-03-13T00:22:27;89898.63;;;1.83;69.44
22649;BME280;11491;41.942;24.220;2023-03-13T00:24:53;89900.09;;;1.89;69.52
22649;BME280;11491;41.942;24.220;2023-03-13T00:27:20;89892.59;;;1.97;69.09
22649;BME280;11491;41.942;24.220;2023-03-13T00:29:47;89896.28;;;1.96;69.64
22649;BME280;11491;41.942;24.220;2023-03-13T00:32:15;89894.34;;;1.87;69.73
22649;BME280;11491;41.942;24.220;2023-03-13T00:34:41;89896.59;;;2.08;68.48
22649;BME280;11491;41.942;24.220;2023-03-13T00:37:08;89889.69;;;2.12;66.77
22649;BME280;11491;41.942;24.220;2023-03-13T00:39:36;89896.59;;;2.08;67.21
22649;BME280;11491;41.942;24.220;2023-03-13T00:42:04;89886.94;;;1.89;69.08
22649;BME280;11491;41.942;24.220;2023-03-13T00:44:31;89889.50;;;1.62;70.80
22649;BME280;11491;41.942;24.220;2023-03-13T00:46:57;89895.44;;;1.54;71.48
22649;BME280;11491;41.942;24.220;2023-03-13T00:49:24;89893.88;;;1.66;70.12
22649;BME280;11491;41.942;24.220;2023-03-13T00:51:51;89880.66;;;1.85;69.27
22649;BME280;11491;41.942;24.220;2023-03-13T00:54:18;89883.56;;;1.70;70.07
22649;BME280;11491;41.942;24.220;2023-03-13T00:56:46;89886.03;;;1.80;70.12
22649;BME280;11491;41.942;24.220;2023-03-13T00:59:13;89857.47;;;1.55;70.73
22649;BME280;11491;41.942;24.220;2023-03-13T01:01:40;89876.97;;;1.86;69.40
22649;BME280;11491;41.942;24.220;2023-03-13T01:04:08;89875.78;;;1.92;68.42
22649;BME280;11491;41.942;24.220;2023-03-13T01:06:37;89890.44;;;1.99;68.50
22649;BME280;11491;41.942;24.220;2023-03-13T01:09:06;89883.97;;;1.77;69.58
22649;BME280;11491;41.942;24.220;2023-03-13T01:11:35;89889.66;;;1.84;68.31
22649;BME280;11491;41.942;24.220;2023-03-13T01:14:05;89884.56;;;1.74;69.41
22649;BME280;11491;41.942;24.220;2023-03-13T01:16:34;89885.53;;;1.78;69.24
22649;BME280;11491;41.942;24.220;2023-03-13T01:19:02;89877.13;;;1.76;69.22
22649;BME280;11491;41.942;24.220;2023-03-13T01:21:30;89885.03;;;1.76;69.53
22649;BME280;11491;41.942;24.220;2023-03-13T01:23:57;89891.28;;;1.80;68.83
22649;BME280;11491;41.942;24.220;2023-03-13T01:26:24;89883.88;;;1.82;68.83
22649;BME280;11491;41.942;24.220;2023-03-13T01:28:51;89897.06;;;1.82;68.58
22649;BME280;11491;41.942;24.220;2023-03-13T01:31:20;89890.03;;;1.78;68.30
22649;BME280;11491;41.942;24.220;2023-03-13T01:33:49;89885.72;;;1.68;68.75
22649;BME280;11491;41.942;24.220;2023-03-13T01:36:17;89894.78;;;1.62;68.30
22649;BME280;11491;41.942;24.220;2023-03-13T01:38:47;89892.63;;;1.31;68.39
22649;BME280;11491;41.942;24.220;2023-03-13T01:41:14;89899.38;;;1.04;69.25
22649;BME280;11491;41.942;24.220;2023-03-13T01:43:42;89892.94;;;1.11;68.03
22649;BME280;11491;41.942;24.220;2023-03-13T01:46:11;89898.28;;;1.05;67.16
22649;BME280;11491;41.942;24.220;2023-03-13T01:48:45;89907.25;;;0.85;68.99
22649;BME280;11491;41.942;24.220;2023-03-13T01:51:18;89903.34;;;0.83;69.71
22649;BME280;11491;41.942;24.220;2023-03-13T01:53:49;89906.47;;;0.85;68.52
22649;BME280;11491;41.942;24.220;2023-03-13T01:56:19;89910.03;;;0.94;67.98
22649;BME280;11491;41.942;24.220;2023-03-13T01:58:48;89907.19;;;0.91;67.18
22649;BME280;11491;41.942;24.220;2023-03-13T02:01:17;89902.47;;;0.69;68.41
22649;BME280;11491;41.942;24.220;2023-03-13T02:03:47;89902.88;;;0.38;69.85
22649;BME280;11491;41.942;24.220;2023-03-13T02:06:15;89906.44;;;0.47;68.93
22649;BME280;11491;41.942;24.220;2023-03-13T02:08:45;89919.31;;;0.49;68.32
22649;BME280;11491;41.942;24.220;2023-03-13T02:11:20;89918.94;;;0.36;69.15
22649;BME280;11491;41.942;24.220;2023-03-13T02:13:49;89923.94;;;0.38;68.23
22649;BME280;11491;41.942;24.220;2023-03-13T02:16:18;89929.31;;;0.28;69.92
22649;BME280;11491;41.942;24.220;2023-03-13T02:18:47;89936.34;;;0.08;71.03
22649;BME280;11491;41.942;24.220;2023-03-13T02:21:18;89919.66;;;-0.06;70.81
22649;BME280;11491;41.942;24.220;2023-03-13T02:23:54;89944.03;;;-0.25;72.47
22649;BME280;11491;41.942;24.220;2023-03-13T02:26:23;89943.28;;;-0.01;70.48
22649;BME280;11491;41.942;24.220;2023-03-13T02:28:50;89937.25;;;-0.02;70.53
22649;BME280;11491;41.942;24.220;2023-03-13T02:31:17;89945.19;;;-0.07;70.35
22649;BME280;11491;41.942;24.220;2023-03-13T02:33:44;89949.66;;;-0.07;70.20
22649;BME280;11491;41.942;24.220;2023-03-13T02:36:11;89950.94;;;-0.34;72.50
22649;BME280;11491;41.942;24.220;2023-03-13T02:38:44;89959.88;;;-0.35;72.47
22649;BME280;11491;41.942;24.220;2023-03-13T02:41:13;89965.69;;;-0.38;71.82
22649;BME280;11491;41.942;24.220;2023-03-13T02:43:41;89967.19;;;-0.27;71.56
22649;BME280;11491;41.942;24.220;2023-03-13T02:46:10;89967.72;;;-0.30;71.28
22649;BME280;11491;41.942;24.220;2023-03-13T02:48:39;89972.28;;;-0.40;71.90
22649;BME280;11491;41.942;24.220;2023-03-13T02:51:13;89974.16;;;-0.80;72.83
22649;BME280;11491;41.942;24.220;2023-03-13T02:53:42;89975.81;;;-0.55;71.34
22649;BME280;11491;41.942;24.220;2023-03-13T02:56:11;89980.50;;;-0.52;71.27
22649;BME280;11491;41.942;24.220;2023-03-13T02:58:39;89984.44;;;-0.50;71.09
22649;BME280;11491;41.942;24.220;2023-03-13T03:01:07;89986.09;;;-0.59;71.37
22649;BME280;11491;41.942;24.220;2023-03-13T03:03:34;89987.97;;;-0.64;70.98
22649;BME280;11491;41.942;24.220;2023-03-13T03:06:02;89993.81;;;-0.78;72.34
22649;BME280;11491;41.942;24.220;2023-03-13T03:08:29;89986.09;;;-0.98;73.00
22649;BME280;11491;41.942;24.220;2023-03-13T03:10:56;90003.34;;;-0.92;73.02
22649;BME280;11491;41.942;24.220;2023-03-13T03:13:23;90000.69;;;-0.87;72.17
22649;BME280;11491;41.942;24.220;2023-03-13T03:15:50;90001.88;;;-1.03;73.34
22649;BME280;11491;41.942;24.220;2023-03-13T03:18:18;90007.66;;;-1.06;72.74
22649;BME280;11491;41.942;24.220;2023-03-13T03:20:45;90009.75;;;-1.09;73.86
22649;BME280;11491;41.942;24.220;2023-03-13T03:23:11;90019.66;;;-0.95;72.22
22649;BME280;11491;41.942;24.220;2023-03-13T03:25:38;89991.44;;;-1.14;72.02
22649;BME280;11491;41.942;24.220;2023-03-13T03:28:05;90012.41;;;-1.14;72.81
22649;BME280;11491;41.942;24.220;2023-03-13T03:30:32;90020.25;;;-1.09;72.13
22649;BME280;11491;41.942;24.220;2023-03-13T03:32:58;90010.84;;;-1.15;71.30
22649;BME280;11491;41.942;24.220;2023-03-13T03:35:29;90025.53;;;-1.14;71.57
22649;BME280;11491;41.942;24.220;2023-03-13T03:37:55;90033.16;;;-1.17;72.06
22649;BME280;11491;41.942;24.220;2023-03-13T03:40:22;90039.28;;;-1.37;73.14
22649;BME280;11491;41.942;24.220;2023-03-13T03:42:49;90039.06;;;-1.51;74.14
22649;BME280;11491;41.942;24.220;2023-03-13T03:45:16;90042.44;;;-1.45;74.49
22649;BME280;11491;41.942;24.220;2023-03-13T03:47:42;90047.66;;;-1.35;73.72
22649;BME280;11491;41.942;24.220;2023-03-13T03:50:10;90047.13;;;-1.32;72.46
22649;BME280;11491;41.942;24.220;2023-03-13T03:52:38;90054.47;;;-1.29;72.59
22649;BME280;11491;41.942;24.220;2023-03-13T03:55:05;90047.38;;;-1.28;72.26
22649;BME280;11491;41.942;24.220;2023-03-13T03:57:32;90053.69;;;-1.35;72.12
22649;BME280;11491;41.942;24.220;2023-03-13T03:59:58;90056.31;;;-1.40;72.42
22649;BME280;11491;41.942;24.220;2023-03-13T04:02:25;90068.19;;;-1.63;72.65
22649;BME280;11491;41.942;24.220;2023-03-13T04:04:52;90063.53;;;-1.76;73.48
22649;BME280;11491;41.942;24.220;2023-03-13T04:07:19;90063.53;;;-1.76;73.67
22649;BME280;11491;41.942;24.220;2023-03-13T04:09:47;90065.06;;;-1.65;73.39
22649;BME280;11491;41.942;24.220;2023-03-13T04:12:14;90076.09;;;-1.78;73.80
22649;BME280;11491;41.942;24.220;2023-03-13T04:14:41;90072.94;;;-1.70;72.82
22649;BME280;11491;41.942;24.220;2023-03-13T04:17:08;90080.28;;;-1.77;73.31
22649;BME280;11491;41.942;24.220;2023-03-13T04:19:34;90068.78;;;-2.02;73.98
22649;BME280;11491;41.942;24.220;2023-03-13T04:22:01;90083.47;;;-1.90;74.41
22649;BME280;11491;41.942;24.220;2023-03-13T04:24:28;90086.09;;;-1.96;75.24
22649;BME280;11491;41.942;24.220;2023-03-13T04:26:56;90083.47;;;-2.01;75.13
22649;BME280;11491;41.942;24.220;2023-03-13T04:29:23;90072.97;;;-1.90;74.15
22649;BME280;11491;41.942;24.220;2023-03-13T04:31:49;90075.06;;;-1.92;73.56
22649;BME280;11491;41.942;24.220;2023-03-13T04:34:16;90069.06;;;-2.24;75.16
22649;BME280;11491;41.942;24.220;2023-03-13T04:36:43;90095.00;;;-2.07;75.09
22649;BME280;11491;41.942;24.220;2023-03-13T04:39:09;90101.03;;;-1.96;74.21
22649;BME280;11491;41.942;24.220;2023-03-13T04:41:36;90101.53;;;-1.99;74.15
22649;BME280;11491;41.942;24.220;2023-03-13T04:44:04;90109.66;;;-1.90;73.63
22649;BME280;11491;41.942;24.220;2023-03-13T04:46:31;90105.47;;;-1.91;73.60
22649;BME280;11491;41.942;24.220;2023-03-13T04:48:58;90103.91;;;-1.98;73.40
22649;BME280;11491;41.942;24.220;2023-03-13T04:51:25;90128.03;;;-2.06;73.62
22649;BME280;11491;41.942;24.220;2023-03-13T04:53:51;90125.41;;;-2.11;73.84
22649;BME280;11491;41.942;24.220;2023-03-13T04:56:21;90119.63;;;-2.18;74.37
22649;BME280;11491;41.942;24.220;2023-03-13T04:58:48;90125.13;;;-2.30;75.77
22649;BME280;11491;41.942;24.220;2023-03-13T05:01:17;90120.66;;;-2.45;75.96
22649;BME280;11491;41.942;24.220;2023-03-13T05:03:44;90127.50;;;-2.18;74.73
22649;BME280;11491;41.942;24.220;2023-03-13T05:06:11;90126.44;;;-2.17;74.42
22649;BME280;11491;41.942;24.220;2023-03-13T05:08:39;90123.56;;;-2.26;74.72
22649;BME280;11491;41.942;24.220;2023-03-13T05:11:05;90122.75;;;-2.42;75.47
22649;BME280;11491;41.942;24.220;2023-03-13T05:13:32;90136.63;;;-2.41;76.03
22649;BME280;11491;41.942;24.220;2023-03-13T05:15:59;90133.50;;;-2.23;75.11
22649;BME280;11491;41.942;24.220;2023-03-13T05:18:28;90143.22;;;-2.23;74.87
22649;BME280;11491;41.942;24.220;2023-03-13T05:20:55;90144.75;;;-2.32;75.98
22649;BME280;11491;41.942;24.220;2023-03-13T05:23:22;90151.00;;;-2.49;76.20
22649;BME280;11491;41.942;24.220;2023-03-13T05:25:51;90141.63;;;-2.24;75.63
22649;BME280;11491;41.942;24.220;2023-03-13T05:28:18;90153.16;;;-2.20;75.96
22649;BME280;11491;41.942;24.220;2023-03-13T05:30:44;90150.03;;;-2.07;76.00
22649;BME280;11491;41.942;24.220;2023-03-13T05:33:11;90153.16;;;-2.00;75.64
22649;BME280;11491;41.942;24.220;2023-03-13T05:35:39;90154.75;;;-1.88;75.95
22649;BME280;11491;41.942;24.220;2023-03-13T05:38:06;90156.31;;;-1.67;74.57
22649;BME280;11491;41.942;24.220;2023-03-13T05:40:33;90163.66;;;-1.59;74.16
22649;BME280;11491;41.942;24.220;2023-03-13T05:43:00;90167.28;;;-1.39;73.33
22649;BME280;11491;41.942;24.220;2023-03-13T05:45:27;90164.69;;;-1.34;73.42
22649;BME280;11491;41.942;24.220;2023-03-13T05:47:53;90169.91;;;-1.24;73.61
22649;BME280;11491;41.942;24.220;2023-03-13T05:50:20;90170.94;;;-1.30;74.42
22649;BME280;11491;41.942;24.220;2023-03-13T05:52:49;90162.53;;;-1.12;75.02
22649;BME280;11491;41.942;24.220;2023-03-13T05:55:15;90174.00;;;-0.97;73.88
22649;BME280;11491;41.942;24.220;2023-03-13T05:57:43;90170.38;;;-1.06;73.94
22649;BME280;11491;41.942;24.220;2023-03-13T06:00:12;90171.38;;;-0.92;73.78
22649;BME280;11491;41.942;24.220;2023-03-13T06:02:39;90164.78;;;-0.90;73.87
22649;BME280;11491;41.942;24.220;2023-03-13T06:05:06;90172.34;;;-0.73;73.07
22649;BME280;11491;41.942;24.220;2023-03-13T06:07:33;90173.91;;;-0.61;72.90
22649;BME280;11491;41.942;24.220;2023-03-13T06:10:01;90183.25;;;-0.40;71.81
22649;BME280;11491;41.942;24.220;2023-03-13T06:12:28;90177.34;;;-0.16;71.67
22649;BME280;11491;41.942;24.220;2023-03-13T06:14:55;90184.59;;;0.02;71.50
22649;BME280;11491;41.942;24.220;2023-03-13T06:17:21;90189.25;;;0.15;70.33
22649;BME280;11491;41.942;24.220;2023-03-13T06:19:49;90186.00;;;0.29;70.06
22649;BME280;11491;41.942;24.220;2023-03-13T06:22:16;90188.41;;;0.54;69.61
22649;BME280;11491;41.942;24.220;2023-03-13T06:24:43;90190.09;;;0.74;69.47
22649;BME280;11491;41.942;24.220;2023-03-13T06:27:12;90192.34;;;0.86;67.80
22649;BME280;11491;41.942;24.220;2023-03-13T06:29:39;90192.66;;;1.08;67.81
22649;BME280;11491;41.942;24.220;2023-03-13T06:32:06;90195.66;;;1.26;67.68
22649;BME280;11491;41.942;24.220;2023-03-13T06:34:33;90193.66;;;1.42;66.81
22649;BME280;11491;41.942;24.220;2023-03-13T06:37:00;90177.59;;;1.62;66.44
22649;BME280;11491;41.942;24.220;2023-03-13T06:39:26;90179.47;;;1.81;66.10
22649;BME280;11491;41.942;24.220;2023-03-13T06:41:53;90184.09;;;2.08;64.54
22649;BME280;11491;41.942;24.220;2023-03-13T06:44:21;90187.34;;;2.24;64.23
22649;BME280;11491;41.942;24.220;2023-03-13T06:46:48;90189.38;;;2.46;62.85
22649;BME280;11491;41.942;24.220;2023-03-13T06:49:15;90180.06;;;2.67;60.74
22649;BME280;11491;41.942;24.220;2023-03-13T06:51:42;90185.34;;;2.67;56.77
22649;BME280;11491;41.942;24.220;2023-03-13T06:54:08;90185.00;;;2.55;56.99
22649;BME280;11491;41.942;24.220;2023-03-13T06:56:35;90189.28;;;2.70;57.40
22649;BME280;11491;41.942;24.220;2023-03-13T06:59:02;90192.59;;;2.75;55.46
22649;BME280;11491;41.942;24.220;2023-03-13T07:01:30;90185.50;;;2.90;54.97
22649;BME280;11491;41.942;24.220;2023-03-13T07:03:57;90175.75;;;3.04;54.73
22649;BME280;11491;41.942;24.220;2023-03-13T07:06:23;90166.88;;;3.28;55.84
22649;BME280;11491;41.942;24.220;2023-03-13T07:08:51;90185.88;;;3.57;54.89
22649;BME280;11491;41.942;24.220;2023-03-13T07:11:18;90174.75;;;3.60;54.29
22649;BME280;11491;41.942;24.220;2023-03-13T07:13:44;90171.00;;;3.61;53.21
22649;BME280;11491;41.942;24.220;2023-03-13T07:16:12;90174.44;;;3.76;53.09
22649;BME280;11491;41.942;24.220;2023-03-13T07:18:40;90170.59;;;3.82;53.73
22649;BME280;11491;41.942;24.220;2023-03-13T07:21:09;90173.50;;;4.08;53.45
22649;BME280;11491;41.942;24.220;2023-03-13T07:23:36;90175.78;;;4.37;54.54
22649;BME280;11491;41.942;24.220;2023-03-13T07:26:04;90175.34;;;4.58;54.91
22649;BME280;11491;41.942;24.220;2023-03-13T07:28:32;90181.72;;;4.79;53.01
22649;BME280;11491;41.942;24.220;2023-03-13T07:31:03;90184.59;;;4.91;54.80
22649;BME280;11491;41.942;24.220;2023-03-13T07:33:31;90168.69;;;4.91;49.13
22649;BME280;11491;41.942;24.220;2023-03-13T07:35:59;90184.19;;;4.53;48.69
22649;BME280;11491;41.942;24.220;2023-03-13T07:38:26;90181.00;;;4.65;50.22
22649;BME280;11491;41.942;24.220;2023-03-13T07:40:54;90179.78;;;4.71;52.97
22649;BME280;11491;41.942;24.220;2023-03-13T07:43:22;90185.22;;;4.88;51.02
22649;BME280;11491;41.942;24.220;2023-03-13T07:45:50;90186.88;;;5.07;51.17
22649;BME280;11491;41.942;24.220;2023-03-13T07:48:17;90176.97;;;5.21;51.36
22649;BME280;11491;41.942;24.220;2023-03-13T07:50:44;90175.78;;;5.27;49.45
22649;BME280;11491;41.942;24.220;2023-03-13T07:53:14;90178.19;;;5.46;46.56
22649;BME280;11491;41.942;24.220;2023-03-13T07:55:56;90172.72;;;5.43;49.13
22649;BME280;11491;41.942;24.220;2023-03-13T07:58:25;90192.38;;;5.42;45.62
22649;BME280;11491;41.942;24.220;2023-03-13T08:00:52;90195.44;;;5.04;48.27
22649;BME280;11491;41.942;24.220;2023-03-13T08:03:19;90189.31;;;4.94;47.78
22649;BME280;11491;41.942;24.220;2023-03-13T08:05:46;90182.84;;;4.87;50.28
22649;BME280;11491;41.942;24.220;2023-03-13T08:08:14;90187.47;;;5.04;50.62
22649;BME280;11491;41.942;24.220;2023-03-13T08:10:41;90193.13;;;5.11;49.06
22649;BME280;11491;41.942;24.220;2023-03-13T08:13:09;90178.91;;;5.07;49.76
22649;BME280;11491;41.942;24.220;2023-03-13T08:15:36;90182.13;;;5.17;49.55
22649;BME280;11491;41.942;24.220;2023-03-13T08:18:03;90167.59;;;5.15;49.14
22649;BME280;11491;41.942;24.220;2023-03-13T08:20:29;90179.50;;;5.26;48.10
22649;BME280;11491;41.942;24.220;2023-03-13T08:22:56;90176.63;;;5.45;48.94
22649;BME280;11491;41.942;24.220;2023-03-13T08:25:24;90167.50;;;5.60;46.04
22649;BME280;11491;41.942;24.220;2023-03-13T08:27:51;90155.41;;;5.76;47.62
22649;BME280;11491;41.942;24.220;2023-03-13T08:30:18;90156.72;;;6.05;47.22
22649;BME280;11491;41.942;24.220;2023-03-13T08:32:45;90169.59;;;6.55;47.70
22649;BME280;11491;41.942;24.220;2023-03-13T08:35:11;90161.13;;;7.05;45.74
22649;BME280;11491;41.942;24.220;2023-03-13T08:37:38;90149.44;;;7.53;44.14
22649;BME280;11491;41.942;24.220;2023-03-13T08:40:06;90147.31;;;7.76;43.17
22649;BME280;11491;41.942;24.220;2023-03-13T08:42:37;90141.97;;;8.15;42.76
22649;BME280;11491;41.942;24.220;2023-03-13T08:45:06;90144.06;;;8.30;38.85
22649;BME280;11491;41.942;24.220;2023-03-13T08:47:33;90138.28;;;7.98;41.88
22649;BME280;11491;41.942;24.220;2023-03-13T08:49:59;90148.75;;;8.33;40.06
22649;BME280;11491;41.942;24.220;2023-03-13T08:52:26;90157.88;;;8.74;42.68
22649;BME280;11491;41.942;24.220;2023-03-13T08:54:53;90161.59;;;9.03;38.92
22649;BME280;11491;41.942;24.220;2023-03-13T08:57:20;90173.16;;;8.86;38.96
22649;BME280;11491;41.942;24.220;2023-03-13T08:59:48;90177.38;;;9.08;39.86
22649;BME280;11491;41.942;24.220;2023-03-13T09:02:15;90171.13;;;9.04;38.46
22649;BME280;11491;41.942;24.220;2023-03-13T09:04:45;90173.59;;;9.09;40.24
22649;BME280;11491;41.942;24.220;2023-03-13T09:07:12;90179.13;;;9.04;38.53
22649;BME280;11491;41.942;24.220;2023-03-13T09:09:39;90177.50;;;9.12;41.18
22649;BME280;11491;41.942;24.220;2023-03-13T09:12:07;90177.84;;;9.43;39.62
22649;BME280;11491;41.942;24.220;2023-03-13T09:14:34;90176.13;;;9.60;38.46
22649;BME280;11491;41.942;24.220;2023-03-13T09:17:02;90173.47;;;9.05;37.68
22649;BME280;11491;41.942;24.220;2023-03-13T09:19:29;90185.31;;;8.54;37.99
22649;BME280;11491;41.942;24.220;2023-03-13T09:21:55;90176.09;;;8.72;37.92
22649;BME280;11491;41.942;24.220;2023-03-13T09:24:22;90177.28;;;8.62;38.01
22649;BME280;11491;41.942;24.220;2023-03-13T09:26:49;90170.50;;;8.65;39.68
22649;BME280;11491;41.942;24.220;2023-03-13T09:29:16;90178.13;;;8.75;40.03
22649;BME280;11491;41.942;24.220;2023-03-13T09:31:42;90172.38;;;9.40;38.96
22649;BME280;11491;41.942;24.220;2023-03-13T09:34:10;90173.72;;;9.46;38.91
22649;BME280;11491;41.942;24.220;2023-03-13T09:36:37;90172.59;;;9.35;38.39
22649;BME280;11491;41.942;24.220;2023-03-13T09:39:04;90166.00;;;9.78;39.33
22649;BME280;11491;41.942;24.220;2023-03-13T09:41:34;90152.25;;;10.25;39.21
22649;BME280;11491;41.942;24.220;2023-03-13T09:44:06;90164.03;;;10.61;38.19
22649;BME280;11491;41.942;24.220;2023-03-13T09:46:39;90170.63;;;10.26;37.41
22649;BME280;11491;41.942;24.220;2023-03-13T09:49:14;90162.03;;;10.21;38.97
22649;BME280;11491;41.942;24.220;2023-03-13T09:51:46;90163.16;;;10.69;35.27
22649;BME280;11491;41.942;24.220;2023-03-13T09:54:22;90169.63;;;10.19;36.26
22649;BME280;11491;41.942;24.220;2023-03-13T09:56:53;90156.59;;;10.17;38.50
22649;BME280;11491;41.942;24.220;2023-03-13T09:59:27;90155.16;;;10.56;36.83
22649;BME280;11491;41.942;24.220;2023-03-13T10:01:56;90153.78;;;10.75;37.17
22649;BME280;11491;41.942;24.220;2023-03-13T10:04:33;90146.91;;;11.02;34.79
22649;BME280;11491;41.942;24.220;2023-03-13T10:07:01;90145.03;;;11.47;38.17
22649;BME280;11491;41.942;24.220;2023-03-13T10:09:31;90143.41;;;12.02;35.44
22649;BME280;11491;41.942;24.220;2023-03-13T10:12:05;90140.16;;;12.60;36.09
22649;BME280;11491;41.942;24.220;2023-03-13T10:14:41;90142.66;;;12.68;33.99
22649;BME280;11491;41.942;24.220;2023-03-13T10:17:19;90139.22;;;12.87;34.35
22649;BME280;11491;41.942;24.220;2023-03-13T10:19:54;90141.31;;;13.52;34.66
22649;BME280;11491;41.942;24.220;2023-03-13T10:22:24;90150.22;;;14.22;30.22
22649;BME280;11491;41.942;24.220;2023-03-13T10:24:56;90148.38;;;13.61;30.97
22649;BME280;11491;41.942;24.220;2023-03-13T10:27:23;90149.50;;;13.79;30.59
22649;BME280;11491;41.942;24.220;2023-03-13T10:29:50;90136.59;;;13.88;32.89
22649;BME280;11491;41.942;24.220;2023-03-13T10:32:18;90143.22;;;13.94;32.54
22649;BME280;11491;41.942;24.220;2023-03-13T10:34:52;90144.59;;;14.08;33.81
22649;BME280;11491;41.942;24.220;2023-03-13T10:37:22;90142.88;;;13.53;33.16
22649;BME280;11491;41.942;24.220;2023-03-13T10:39:49;90134.50;;;13.58;34.00
22649;BME280;11491;41.942;24.220;2023-03-13T10:42:22;90131.34;;;13.95;32.53
22649;BME280;11491;41.942;24.220;2023-03-13T10:44:56;90131.53;;;14.06;33.77
22649;BME280;11491;41.942;24.220;2023-03-13T10:47:23;90130.66;;;14.48;32.97
22649;BME280;11491;41.942;24.220;2023-03-13T10:49:55;90121.13;;;14.77;32.22
22649;BME280;11491;41.942;24.220;2023-03-13T10:52:31;90124.41;;;13.94;32.25
22649;BME280;11491;41.942;24.220;2023-03-13T10:55:00;90120.03;;;13.86;33.06
22649;BME280;11491;41.942;24.220;2023-03-13T10:57:29;90110.31;;;14.24;32.59
22649;BME280;11491;41.942;24.220;2023-03-13T10:59:57;90102.38;;;14.58;33.52
22649;BME280;11491;41.942;24.220;2023-03-13T11:02:27;90118.44;;;14.05;32.13
22649;BME280;11491;41.942;24.220;2023-03-13T11:05:02;90114.84;;;14.20;33.77
22649;BME280;11491;41.942;24.220;2023-03-13T11:07:45;90114.75;;;13.90;33.69
22649;BME280;11491;41.942;24.220;2023-03-13T11:10:17;90104.84;;;14.43;33.39
22649;BME280;11491;41.942;24.220;2023-03-13T11:12:45;90095.47;;;14.83;32.20
22649;BME280;11491;41.942;24.220;2023-03-13T11:15:14;90101.22;;;14.85;31.12
22649;BME280;11491;41.942;24.220;2023-03-13T11:17:43;90099.13;;;14.98;31.45
22649;BME280;11491;41.942;24.220;2023-03-13T11:20:21;90072.69;;;14.77;32.24
22649;BME280;11491;41.942;24.220;2023-03-13T11:23:01;90080.09;;;14.57;32.17
22649;BME280;11491;41.942;24.220;2023-03-13T11:25:34;90086.09;;;15.04;32.04
22649;BME280;11491;41.942;24.220;2023-03-13T11:28:20;90081.53;;;15.08;30.96
22649;BME280;11491;41.942;24.220;2023-03-13T11:31:12;90080.84;;;15.15;30.96
22649;BME280;11491;41.942;24.220;2023-03-13T11:33:46;90083.53;;;14.84;31.56
22649;BME280;11491;41.942;24.220;2023-03-13T11:36:22;90084.25;;;15.12;30.52
22649;BME280;11491;41.942;24.220;2023-03-13T11:39:02;90078.22;;;14.88;31.45
22649;BME280;11491;41.942;24.220;2023-03-13T11:41:44;90073.84;;;14.27;31.16
22649;BME280;11491;41.942;24.220;2023-03-13T11:44:23;90055.31;;;14.48;32.97
22649;BME280;11491;41.942;24.220;2023-03-13T11:47:04;90057.97;;;14.44;31.52
22649;BME280;11491;41.942;24.220;2023-03-13T11:49:47;90044.91;;;14.16;32.21
22649;BME280;11491;41.942;24.220;2023-03-13T11:52:26;90046.19;;;13.99;33.15
22649;BME280;11491;41.942;24.220;2023-03-13T11:58:12;90042.53;;;13.88;32.97
22649;BME280;11491;41.942;24.220;2023-03-13T12:00:46;90038.41;;;13.48;32.69
22649;BME280;11491;41.942;24.220;2023-03-13T12:03:19;90040.31;;;13.71;32.25
22649;BME280;11491;41.942;24.220;2023-03-13T12:05:50;90048.13;;;14.03;33.17
22649;BME280;11491;41.942;24.220;2023-03-13T12:08:20;90037.81;;;14.31;33.65
22649;BME280;11491;41.942;24.220;2023-03-13T12:10:57;90037.34;;;14.26;32.20
22649;BME280;11491;41.942;24.220;2023-03-13T12:13:30;90001.66;;;14.02;32.51
22649;BME280;11491;41.942;24.220;2023-03-13T12:16:01;90020.91;;;14.57;32.18
22649;BME280;11491;41.942;24.220;2023-03-13T12:18:35;90020.22;;;14.11;31.94
22649;BME280;11491;41.942;24.220;2023-03-13T12:21:06;90023.00;;;14.44;33.05
22649;BME280;11491;41.942;24.220;2023-03-13T12:23:45;90023.00;;;14.44;32.73
22649;BME280;11491;41.942;24.220;2023-03-13T12:26:16;90012.13;;;14.34;31.97
22649;BME280;11491;41.942;24.220;2023-03-13T12:28:50;90031.97;;;14.26;32.64
22649;BME280;11491;41.942;24.220;2023-03-13T12:31:26;90022.69;;;14.23;31.28
22649;BME280;11491;41.942;24.220;2023-03-13T12:33:59;90023.28;;;14.09;32.53
22649;BME280;11491;41.942;24.220;2023-03-13T12:36:32;90021.06;;;14.41;31.46
22649;BME280;11491;41.942;24.220;2023-03-13T12:39:13;90016.97;;;14.51;32.11
22649;BME280;11491;41.942;24.220;2023-03-13T12:41:47;90022.91;;;14.94;31.77
22649;BME280;11491;41.942;24.220;2023-03-13T12:44:18;90017.50;;;15.65;31.64
22649;BME280;11491;41.942;24.220;2023-03-13T12:46:46;90018.72;;;16.12;29.88
22649;BME280;11491;41.942;24.220;2023-03-13T12:49:43;90021.50;;;15.79;29.40
22649;BME280;11491;41.942;24.220;2023-03-13T12:52:40;90016.28;;;15.59;29.98
22649;BME280;11491;41.942;24.220;2023-03-13T12:55:26;90017.78;;;15.94;30.41
22649;BME280;11491;41.942;24.220;2023-03-13T13:00:57;90017.81;;;16.56;27.92
22649;BME280;11491;41.942;24.220;2023-03-13T13:03:32;90024.84;;;15.68;29.73
22649;BME280;11491;41.942;24.220;2023-03-13T13:06:08;90013.09;;;15.50;30.33
22649;BME280;11491;41.942;24.220;2023-03-13T13:08:38;90024.00;;;16.02;29.34
22649;BME280;11491;41.942;24.220;2023-03-13T13:11:37;90023.03;;;15.80;29.89